createdAt,value
2023-07-09T00:01:28.483Z,5.68
2023-07-09T00:03:55.558Z,6.13
2023-07-09T00:06:22.945Z,4.82
2023-07-09T00:08:50.558Z,6.35
2023-07-09T00:11:18.505Z,4.00
2023-07-09T00:13:46.142Z,4.82
2023-07-09T00:16:26.527Z,3.83
2023-07-09T00:18:53.569Z,4.20
2023-07-09T00:21:24.162Z,5.25
2023-07-09T00:23:51.930Z,4.15
2023-07-09T00:26:24.377Z,5.97
2023-07-09T00:28:51.567Z,4.82
2023-07-09T00:31:18.917Z,5.82
2023-07-09T00:33:48.254Z,8.32
2023-07-09T00:36:32.439Z,5.25
2023-07-09T00:39:05.772Z,4.90
2023-07-09T00:41:38.282Z,5.43
2023-07-09T00:44:32.256Z,4.63
2023-07-09T00:47:02.398Z,5.00
2023-07-09T00:49:34.940Z,5.55
2023-07-09T00:52:29.089Z,6.55
2023-07-09T00:54:58.009Z,6.45
2023-07-09T00:57:28.068Z,5.75
2023-07-09T01:00:10.430Z,5.20
2023-07-09T01:05:14.120Z,4.10
2023-07-09T01:07:41.693Z,5.90
2023-07-09T01:10:09.196Z,6.85
2023-07-09T01:12:36.223Z,6.93
2023-07-09T01:15:03.437Z,6.20
2023-07-09T01:17:30.610Z,6.57
2023-07-09T01:19:58.201Z,5.32
2023-07-09T01:22:26.312Z,5.80
2023-07-09T01:25:04.843Z,4.97
2023-07-09T01:27:46.548Z,5.63
2023-07-09T01:30:27.384Z,5.05
2023-07-09T01:33:00.012Z,5.45
2023-07-09T01:35:29.695Z,3.42
2023-07-09T01:37:57.092Z,4.70
2023-07-09T01:40:31.754Z,4.82
2023-07-09T01:43:02.065Z,4.88
2023-07-09T01:45:30.171Z,4.47
2023-07-09T01:47:57.844Z,4.50
2023-07-09T01:50:26.160Z,6.55
2023-07-09T01:52:54.759Z,5.95
2023-07-09T01:55:22.427Z,4.60
2023-07-09T01:57:52.269Z,4.10
2023-07-09T02:00:19.733Z,4.72
2023-07-09T02:02:47.567Z,6.60
2023-07-09T02:05:19.217Z,5.80
2023-07-09T02:07:47.674Z,5.57
2023-07-09T02:10:18.748Z,5.82
2023-07-09T02:12:46.972Z,4.88
2023-07-09T02:15:16.047Z,5.03
2023-07-09T02:17:43.501Z,5.78
2023-07-09T02:20:13.049Z,6.90
2023-07-09T02:22:41.373Z,4.90
2023-07-09T02:25:09.872Z,6.05
2023-07-09T02:27:38.790Z,5.82
2023-07-09T02:30:08.812Z,5.00
2023-07-09T02:32:36.301Z,4.88
2023-07-09T02:35:03.686Z,5.15
2023-07-09T02:37:30.605Z,4.85
2023-07-09T02:39:57.504Z,4.72
2023-07-09T02:42:24.942Z,6.00
2023-07-09T02:44:52.760Z,5.32
2023-07-09T02:47:20.501Z,7.72
2023-07-09T02:49:48.094Z,5.93
2023-07-09T02:52:15.433Z,5.32
2023-07-09T02:54:42.735Z,6.53
2023-07-09T02:57:09.824Z,6.18
2023-07-09T02:59:36.913Z,6.80
2023-07-09T03:02:04.687Z,6.15
2023-07-09T03:04:34.803Z,6.40
2023-07-09T03:07:01.929Z,5.35
2023-07-09T03:09:30.163Z,5.47
2023-07-09T03:11:57.443Z,6.70
2023-07-09T03:14:25.090Z,6.78
2023-07-09T03:16:52.246Z,5.28
2023-07-09T03:19:19.532Z,6.85
2023-07-09T03:21:46.430Z,5.47
2023-07-09T03:24:16.233Z,5.35
2023-07-09T03:26:43.216Z,6.30
2023-07-09T03:29:10.144Z,7.45
2023-07-09T03:31:37.250Z,4.78
2023-07-09T03:34:04.597Z,6.03
2023-07-09T03:36:31.810Z,6.15
2023-07-09T03:38:58.804Z,5.72
2023-07-09T03:41:26.305Z,5.05
2023-07-09T03:43:54.467Z,4.25
2023-07-09T03:46:21.883Z,6.10
2023-07-09T03:48:51.526Z,6.40
2023-07-09T03:51:18.672Z,5.47
2023-07-09T03:53:46.018Z,5.18
2023-07-09T03:56:13.109Z,5.70
2023-07-09T03:58:40.059Z,6.07
2023-07-09T04:01:07.069Z,5.55
2023-07-09T04:03:34.170Z,7.18
2023-07-09T04:06:01.317Z,5.93
2023-07-09T04:08:28.611Z,5.85
2023-07-09T04:11:00.159Z,6.30
2023-07-09T04:13:28.566Z,5.13
2023-07-09T04:15:58.878Z,6.32
2023-07-09T04:18:26.230Z,6.60
2023-07-09T04:20:53.701Z,5.45
2023-07-09T04:23:21.294Z,6.78
2023-07-09T04:25:48.405Z,8.68
2023-07-09T04:28:16.507Z,7.38
2023-07-09T04:30:49.325Z,6.57
2023-07-09T04:33:18.763Z,8.02
2023-07-09T04:35:47.474Z,6.95
2023-07-09T04:38:15.367Z,5.82
2023-07-09T04:40:42.608Z,6.88
2023-07-09T04:43:09.605Z,6.95
2023-07-09T04:45:37.353Z,5.82
2023-07-09T04:48:04.921Z,7.13
2023-07-09T04:50:31.921Z,6.65
2023-07-09T04:53:00.456Z,4.88
2023-07-09T04:55:28.601Z,8.82
2023-07-09T04:57:55.848Z,7.68
2023-07-09T05:00:23.011Z,7.57
2023-07-09T05:02:50.085Z,6.03
2023-07-09T05:05:17.240Z,7.07
2023-07-09T05:07:44.243Z,6.32
2023-07-09T05:10:11.451Z,6.43
2023-07-09T05:12:52.564Z,6.95
2023-07-09T05:15:21.981Z,7.05
2023-07-09T05:17:49.414Z,6.68
2023-07-09T05:20:17.226Z,7.38
2023-07-09T05:22:44.242Z,10.75
2023-07-09T05:25:11.627Z,7.93
2023-07-09T05:27:38.675Z,5.78
2023-07-09T05:30:06.849Z,9.48
2023-07-09T05:32:34.447Z,6.28
2023-07-09T05:35:01.398Z,6.25
2023-07-09T05:37:28.431Z,6.78
2023-07-09T05:39:55.358Z,7.75
2023-07-09T05:42:22.325Z,5.57
2023-07-09T05:44:49.240Z,6.63
2023-07-09T05:47:16.567Z,9.88
2023-07-09T05:49:43.674Z,7.95
2023-07-09T05:52:10.638Z,8.75
2023-07-09T05:54:37.562Z,8.02
2023-07-09T05:57:04.773Z,6.45
2023-07-09T05:59:31.746Z,7.45
2023-07-09T06:01:58.785Z,6.10
2023-07-09T06:04:27.720Z,6.05
2023-07-09T06:06:54.817Z,8.93
2023-07-09T06:09:21.774Z,7.55
2023-07-09T06:11:48.693Z,7.55
2023-07-09T06:14:18.080Z,7.88
2023-07-09T06:16:45.182Z,6.57
2023-07-09T06:19:12.172Z,8.38
2023-07-09T06:21:41.054Z,6.72
2023-07-09T06:24:09.310Z,6.90
2023-07-09T06:26:36.410Z,6.68
2023-07-09T06:29:03.588Z,7.55
2023-07-09T06:31:32.109Z,9.60
2023-07-09T06:34:00.203Z,5.85
2023-07-09T06:36:27.214Z,6.10
2023-07-09T06:38:54.148Z,6.28
2023-07-09T06:41:21.909Z,7.43
2023-07-09T06:43:48.844Z,6.35
2023-07-09T06:46:16.831Z,7.38
2023-07-09T06:48:43.919Z,7.57
2023-07-09T06:51:11.449Z,10.60
2023-07-09T06:53:39.066Z,7.72
2023-07-09T06:56:09.936Z,6.47
2023-07-09T06:58:38.112Z,6.82
2023-07-09T07:01:06.057Z,6.63
2023-07-09T07:03:35.091Z,5.88
2023-07-09T07:06:03.628Z,6.50
2023-07-09T07:08:30.923Z,6.63
2023-07-09T07:11:04.126Z,6.30
2023-07-09T07:13:37.470Z,7.68
2023-07-09T07:16:13.311Z,5.47
2023-07-09T07:18:40.905Z,6.47
2023-07-09T07:21:08.354Z,6.70
2023-07-09T07:23:35.437Z,6.35
2023-07-09T07:26:03.117Z,6.32
2023-07-09T07:28:30.656Z,9.35
2023-07-09T07:31:09.502Z,6.32
2023-07-09T07:33:37.185Z,6.25
2023-07-09T07:38:37.804Z,5.68
2023-07-09T07:41:04.811Z,5.13
2023-07-09T07:43:31.798Z,6.40
2023-07-09T07:45:58.803Z,6.53
2023-07-09T07:48:25.938Z,5.53
2023-07-09T07:50:59.089Z,6.47
2023-07-09T07:53:26.077Z,6.57
2023-07-09T07:55:53.218Z,7.20
2023-07-09T07:58:20.269Z,7.75
2023-07-09T08:00:47.402Z,6.43
2023-07-09T08:03:14.493Z,6.00
2023-07-09T08:05:41.400Z,7.72
2023-07-09T08:08:08.340Z,6.22
2023-07-09T08:10:35.245Z,6.43
2023-07-09T08:13:02.243Z,5.93
2023-07-09T08:15:29.362Z,7.10
2023-07-09T08:17:56.540Z,5.25
2023-07-09T08:20:23.519Z,5.80
2023-07-09T08:22:50.439Z,6.40
2023-07-09T08:25:17.524Z,5.00
2023-07-09T08:27:44.468Z,5.45
2023-07-09T08:30:12.032Z,4.45
2023-07-09T08:32:39.034Z,5.68
2023-07-09T08:35:34.336Z,12.20
2023-07-09T08:37:53.332Z,6.30
2023-07-09T08:40:20.695Z,7.68
2023-07-09T08:43:01.461Z,5.55
2023-07-09T08:45:35.027Z,6.97
2023-07-09T08:48:09.311Z,5.40
2023-07-09T08:50:54.572Z,5.05
2023-07-09T08:53:36.705Z,6.45
2023-07-09T08:56:04.358Z,5.68
2023-07-09T08:58:32.951Z,7.65
2023-07-09T09:01:08.023Z,7.38
2023-07-09T09:04:00.458Z,5.78
2023-07-09T09:06:31.314Z,7.00
2023-07-09T09:09:29.737Z,9.40
2023-07-09T09:12:13.441Z,7.80
2023-07-09T09:14:44.987Z,7.07
2023-07-09T09:17:19.938Z,7.40
2023-07-09T09:19:57.016Z,6.55
2023-07-09T09:22:31.994Z,8.15
2023-07-09T09:25:16.378Z,6.25
2023-07-09T09:27:44.827Z,7.53
2023-07-09T09:30:19.979Z,6.78
2023-07-09T09:32:55.532Z,6.97
2023-07-09T09:35:36.060Z,6.78
2023-07-09T09:38:16.604Z,6.30
2023-07-09T09:40:43.512Z,6.03
2023-07-09T09:43:20.915Z,9.95
2023-07-09T09:45:51.081Z,7.18
2023-07-09T09:48:37.951Z,7.30
2023-07-09T09:51:06.378Z,8.55
2023-07-09T09:53:41.037Z,6.03
2023-07-09T09:56:42.415Z,6.00
2023-07-09T09:59:21.509Z,6.53
2023-07-09T10:01:57.490Z,7.95
2023-07-09T10:04:24.623Z,6.88
2023-07-09T10:06:57.360Z,8.18
2023-07-09T10:09:50.308Z,6.88
2023-07-09T10:12:57.850Z,6.45
2023-07-09T10:16:08.671Z,7.18
2023-07-09T10:19:04.464Z,7.10
2023-07-09T10:21:45.202Z,5.97
2023-07-09T10:24:37.693Z,5.53
2023-07-09T10:27:17.455Z,8.38
2023-07-09T10:30:25.906Z,7.03
2023-07-09T10:33:13.391Z,7.07
2023-07-09T10:35:58.431Z,7.05
2023-07-09T10:38:52.485Z,6.22
2023-07-09T10:41:27.395Z,7.93
2023-07-09T10:44:06.352Z,8.80
2023-07-09T10:46:38.943Z,7.18
2023-07-09T10:49:12.681Z,9.32
2023-07-09T10:51:43.110Z,6.93
2023-07-09T10:54:32.884Z,6.47
2023-07-09T10:57:20.007Z,10.77
2023-07-09T10:59:50.730Z,8.02
2023-07-09T11:02:27.437Z,9.90
2023-07-09T11:05:01.462Z,8.15
2023-07-09T11:07:44.627Z,7.53
2023-07-09T11:10:33.373Z,8.38
2023-07-09T11:13:19.060Z,8.25
2023-07-09T11:15:51.924Z,8.10
2023-07-09T11:18:34.854Z,8.38
2023-07-09T11:21:14.931Z,7.78
2023-07-09T11:23:53.023Z,8.60
2023-07-09T11:26:27.671Z,8.02
2023-07-09T11:29:08.383Z,7.35
2023-07-09T11:31:40.690Z,6.68
2023-07-09T11:34:13.794Z,9.10
2023-07-09T11:37:02.261Z,6.53
2023-07-09T11:39:38.397Z,6.88
2023-07-09T11:42:28.509Z,9.30
2023-07-09T11:45:18.660Z,8.73
2023-07-09T11:48:15.366Z,9.13
2023-07-09T11:50:48.766Z,7.70
2023-07-09T11:53:48.605Z,10.77
2023-07-09T11:56:18.917Z,7.47
2023-07-09T11:58:59.072Z,5.88
2023-07-09T12:01:36.396Z,7.70
2023-07-09T12:04:05.888Z,5.95
2023-07-09T12:06:35.254Z,7.18
2023-07-09T12:09:04.163Z,6.28
2023-07-09T12:11:34.543Z,5.38
2023-07-09T12:14:17.788Z,6.03
2023-07-09T12:16:51.265Z,5.03
2023-07-09T12:19:21.934Z,5.00
2023-07-09T12:21:59.355Z,5.05
2023-07-09T12:24:36.611Z,5.13
2023-07-09T12:27:18.388Z,5.93
2023-07-09T12:29:45.322Z,4.10
2023-07-09T12:32:17.289Z,5.78
2023-07-09T12:34:51.329Z,5.80
2023-07-09T12:37:19.899Z,5.20
2023-07-09T12:39:46.839Z,4.65
2023-07-09T12:42:36.649Z,4.80
2023-07-09T12:45:20.806Z,6.35
2023-07-09T12:47:49.999Z,5.57
2023-07-09T12:50:35.888Z,3.90
2023-07-09T12:53:21.874Z,3.90
2023-07-09T12:55:52.204Z,5.00
2023-07-09T12:58:27.016Z,4.43
2023-07-09T13:00:56.747Z,5.25
2023-07-09T13:03:29.712Z,4.53
2023-07-09T13:06:07.052Z,3.78
2023-07-09T13:08:44.122Z,4.80
2023-07-09T13:11:19.915Z,2.78
2023-07-09T13:13:59.099Z,3.03
2023-07-09T13:16:27.231Z,3.53
2023-07-09T13:18:54.836Z,4.22
2023-07-09T13:21:23.903Z,5.35
2023-07-09T13:23:52.166Z,3.50
2023-07-09T13:26:19.088Z,4.38
2023-07-09T13:28:46.683Z,3.47
2023-07-09T13:31:17.833Z,3.38
2023-07-09T13:33:51.167Z,3.25
2023-07-09T13:36:18.754Z,3.65
2023-07-09T13:38:45.661Z,3.10
2023-07-09T13:41:23.085Z,3.40
2023-07-09T13:43:50.854Z,3.78
2023-07-09T13:46:18.105Z,3.55
2023-07-09T13:48:47.061Z,2.17
2023-07-09T13:51:24.814Z,4.65
2023-07-09T13:53:55.564Z,4.20
2023-07-09T13:56:24.637Z,3.00
2023-07-09T13:58:52.252Z,3.50
2023-07-09T14:01:24.022Z,2.60
2023-07-09T14:04:02.014Z,2.97
2023-07-09T14:06:28.925Z,3.60
2023-07-09T14:08:55.909Z,3.30
2023-07-09T14:11:22.979Z,3.45
2023-07-09T14:13:49.992Z,2.92
2023-07-09T14:16:18.024Z,4.15
2023-07-09T14:18:45.472Z,3.13
2023-07-09T14:21:21.680Z,3.45
2023-07-09T14:23:48.781Z,2.55
2023-07-09T14:26:15.884Z,3.55
2023-07-09T14:28:42.861Z,3.67
2023-07-09T14:31:32.706Z,3.03
2023-07-09T14:34:26.152Z,3.22
2023-07-09T14:36:55.428Z,3.15
2023-07-09T14:39:24.469Z,2.50
2023-07-09T14:41:51.662Z,2.92
2023-07-09T14:44:29.299Z,3.00
2023-07-09T14:47:00.409Z,3.90
2023-07-09T14:49:28.364Z,2.65
2023-07-09T14:51:56.691Z,2.55
2023-07-09T14:54:25.737Z,3.88
2023-07-09T14:56:54.540Z,2.92
2023-07-09T14:59:22.337Z,3.45
2023-07-09T15:01:50.783Z,4.93
2023-07-09T15:04:29.606Z,3.10
2023-07-09T15:06:57.958Z,3.83
2023-07-09T15:09:28.378Z,3.20
2023-07-09T15:12:00.413Z,2.78
2023-07-09T15:14:28.195Z,3.58
2023-07-09T15:16:58.547Z,3.42
2023-07-09T15:19:28.087Z,3.80
2023-07-09T15:21:55.776Z,2.95
2023-07-09T15:24:36.020Z,3.67
2023-07-09T15:27:05.312Z,3.88
2023-07-09T15:29:32.354Z,2.95
2023-07-09T15:32:00.955Z,3.10
2023-07-09T15:34:28.046Z,4.35
2023-07-09T15:36:55.701Z,2.25
2023-07-09T15:39:22.975Z,2.55
2023-07-09T15:41:50.010Z,3.90
2023-07-09T15:44:20.535Z,2.50
2023-07-09T15:46:57.757Z,5.35
2023-07-09T15:49:25.467Z,3.80
2023-07-09T15:51:52.594Z,2.75
2023-07-09T15:54:25.395Z,3.67
2023-07-09T15:56:54.670Z,3.22
2023-07-09T15:59:31.397Z,2.60
2023-07-09T16:02:00.324Z,3.60
2023-07-09T16:04:28.520Z,4.07
2023-07-09T16:06:55.809Z,4.38
2023-07-09T16:09:22.857Z,3.28
2023-07-09T16:11:53.782Z,5.35
2023-07-09T16:14:24.219Z,3.83
2023-07-09T16:16:54.088Z,2.88
2023-07-09T16:19:23.668Z,3.97
2023-07-09T16:21:56.114Z,3.55
2023-07-09T16:24:31.742Z,4.10
2023-07-09T16:27:01.417Z,4.22
2023-07-09T16:29:32.288Z,3.70
2023-07-09T16:32:00.980Z,4.18
2023-07-09T16:34:30.721Z,4.70
2023-07-09T16:36:59.658Z,4.47
2023-07-09T16:39:43.465Z,5.97
2023-07-09T16:42:15.609Z,2.22
2023-07-09T16:44:43.130Z,3.08
2023-07-09T16:47:21.566Z,4.15
2023-07-09T16:49:49.745Z,2.33
2023-07-09T16:52:24.875Z,6.65
2023-07-09T16:54:54.693Z,4.82
2023-07-09T16:57:30.696Z,3.28
2023-07-09T17:00:13.727Z,2.95
2023-07-09T17:02:41.013Z,4.68
2023-07-09T17:05:08.541Z,4.88
2023-07-09T17:07:35.758Z,3.70
2023-07-09T17:10:04.548Z,3.83
2023-07-09T17:12:32.528Z,3.22
2023-07-09T17:15:01.418Z,4.15
2023-07-09T17:17:28.740Z,5.90
2023-07-09T17:19:55.723Z,5.53
2023-07-09T17:22:35.708Z,3.75
2023-07-09T17:25:21.691Z,3.83
2023-07-09T17:27:48.681Z,2.55
2023-07-09T17:30:17.185Z,4.20
2023-07-09T17:32:44.172Z,7.03
2023-07-09T17:35:11.145Z,3.97
2023-07-09T17:37:38.205Z,4.20
2023-07-09T17:43:21.862Z,4.57
2023-07-09T17:45:50.455Z,3.70
2023-07-09T17:48:28.944Z,2.75
2023-07-09T17:50:56.432Z,3.15
2023-07-09T17:53:28.561Z,3.38
2023-07-09T17:58:28.960Z,7.65
2023-07-09T18:01:04.281Z,4.05
2023-07-09T18:03:31.594Z,3.60
2023-07-09T18:05:59.761Z,2.60
2023-07-09T18:08:27.267Z,8.90
2023-07-09T18:10:55.443Z,8.85
2023-07-09T18:13:27.806Z,9.90
2023-07-09T18:15:55.761Z,9.52
2023-07-09T18:18:23.551Z,9.00
2023-07-09T18:20:50.787Z,6.43
2023-07-09T18:23:17.922Z,5.68
2023-07-09T18:25:47.158Z,4.65
2023-07-09T18:28:31.731Z,7.78
2023-07-09T18:31:16.394Z,10.13
2023-07-09T18:33:45.250Z,9.55
2023-07-09T18:36:12.452Z,8.63
2023-07-09T18:38:39.425Z,16.05
2023-07-09T18:41:16.480Z,8.35
2023-07-09T18:43:47.726Z,8.52
2023-07-09T18:46:14.805Z,8.32
2023-07-09T18:48:41.874Z,7.18
2023-07-09T18:51:14.555Z,8.38
2023-07-09T18:53:43.428Z,6.43
2023-07-09T18:56:10.439Z,9.65
2023-07-09T18:58:39.035Z,5.60
2023-07-09T19:01:22.741Z,5.25
2023-07-09T19:03:50.437Z,7.40
2023-07-09T19:06:17.928Z,7.43
2023-07-09T19:08:44.914Z,5.78
2023-07-09T19:11:11.843Z,6.00
2023-07-09T19:13:41.137Z,3.65
2023-07-09T19:16:27.952Z,3.05
2023-07-09T19:18:55.550Z,3.17
2023-07-09T19:21:22.524Z,4.13
2023-07-09T19:23:49.538Z,3.38
2023-07-09T19:26:16.822Z,2.90
2023-07-09T19:28:45.785Z,3.03
2023-07-09T19:31:12.885Z,3.22
2023-07-09T19:33:41.456Z,2.75
2023-07-09T19:36:27.920Z,3.30
2023-07-09T19:38:55.737Z,2.88
2023-07-09T19:41:25.519Z,2.30
2023-07-09T19:43:52.613Z,1.77
2023-07-09T19:46:29.551Z,4.55
2023-07-09T19:48:57.307Z,2.85
2023-07-09T19:51:24.291Z,2.53
2023-07-09T19:53:51.291Z,2.35
2023-07-09T19:56:18.322Z,2.33
2023-07-09T19:58:45.276Z,3.10
2023-07-09T20:01:14.089Z,1.83
2023-07-09T20:03:41.638Z,1.92
2023-07-09T20:06:12.227Z,1.67
2023-07-09T20:08:39.126Z,2.58
2023-07-09T20:11:11.960Z,2.05
2023-07-09T20:13:39.067Z,2.58
2023-07-09T20:16:06.214Z,3.28
2023-07-09T20:18:33.477Z,3.33
2023-07-09T20:21:04.333Z,1.70
2023-07-09T20:23:32.550Z,2.83
2023-07-09T20:26:00.260Z,3.13
2023-07-09T20:28:29.895Z,1.88
2023-07-09T20:30:58.416Z,1.45
2023-07-09T20:33:27.786Z,2.53
2023-07-09T20:35:54.903Z,1.88
2023-07-09T20:38:26.837Z,2.63
2023-07-09T20:40:55.769Z,2.30
2023-07-09T20:43:31.139Z,2.65
2023-07-09T20:45:58.105Z,2.35
2023-07-09T20:48:25.464Z,2.17
2023-07-09T20:50:57.657Z,2.97
2023-07-09T20:53:26.182Z,2.05
2023-07-09T20:55:57.562Z,3.75
2023-07-09T20:58:27.114Z,2.33
2023-07-09T21:00:55.908Z,4.45
2023-07-09T21:03:27.215Z,2.28
2023-07-09T21:05:55.096Z,2.70
2023-07-09T21:08:27.837Z,5.50
2023-07-09T21:10:55.237Z,2.80
2023-07-09T21:13:25.292Z,4.18
2023-07-09T21:15:57.167Z,4.75
2023-07-09T21:18:33.431Z,2.30
2023-07-09T21:21:00.689Z,4.13
2023-07-09T21:23:27.682Z,2.20
2023-07-09T21:25:54.635Z,2.22
2023-07-09T21:28:21.764Z,1.73
2023-07-09T21:30:49.016Z,3.92
2023-07-09T21:33:19.691Z,4.47
2023-07-09T21:35:48.300Z,2.42
2023-07-09T21:38:25.395Z,2.55
2023-07-09T21:40:54.628Z,2.78
2023-07-09T21:43:21.882Z,2.40
2023-07-09T21:45:56.300Z,3.55
2023-07-09T21:48:27.067Z,2.60
2023-07-09T21:50:55.139Z,2.22
2023-07-09T21:53:45.717Z,3.35
2023-07-09T21:56:13.565Z,2.28
2023-07-09T21:58:41.035Z,3.88
2023-07-09T22:01:19.695Z,1.90
2023-07-09T22:03:47.282Z,3.30
2023-07-09T22:06:15.022Z,2.38
2023-07-09T22:08:47.265Z,3.13
2023-07-09T22:11:28.200Z,2.05
2023-07-09T22:13:56.895Z,2.90
2023-07-09T22:16:26.753Z,2.53
2023-07-09T22:18:53.871Z,3.47
2023-07-09T22:21:20.839Z,3.20
2023-07-09T22:23:47.843Z,2.28
2023-07-09T22:26:14.843Z,4.55
2023-07-09T22:28:41.886Z,1.60
2023-07-09T22:31:12.645Z,2.53
2023-07-09T22:33:39.761Z,1.83
2023-07-09T22:36:11.508Z,2.83
2023-07-09T22:38:38.515Z,2.28
2023-07-09T22:41:05.610Z,1.67
2023-07-09T22:43:33.129Z,2.65
2023-07-09T22:46:00.652Z,2.70
2023-07-09T22:48:28.361Z,3.10
2023-07-09T22:50:56.328Z,1.73
2023-07-09T22:53:24.535Z,2.38
2023-07-09T22:55:53.435Z,4.50
2023-07-09T22:58:22.540Z,1.80
2023-07-09T23:00:55.973Z,0.95
2023-07-09T23:03:33.449Z,1.92
2023-07-09T23:06:03.030Z,2.78
2023-07-09T23:08:30.988Z,2.15
2023-07-09T23:11:00.872Z,3.30
2023-07-09T23:13:34.767Z,2.33
2023-07-09T23:16:03.417Z,2.05
2023-07-09T23:18:31.416Z,1.55
2023-07-09T23:20:58.649Z,1.77
2023-07-09T23:23:25.626Z,1.50
2023-07-09T23:25:57.383Z,2.53
2023-07-09T23:28:25.154Z,4.10
2023-07-09T23:30:53.070Z,1.35
2023-07-09T23:33:26.420Z,1.40
2023-07-09T23:35:57.525Z,2.58
2023-07-09T23:38:27.950Z,1.50
2023-07-09T23:41:01.087Z,1.02
2023-07-09T23:43:34.815Z,1.95
2023-07-09T23:46:02.997Z,2.22
2023-07-09T23:48:31.034Z,1.35
2023-07-09T23:51:03.328Z,1.65
2023-07-09T23:56:14.715Z,2.20
2023-07-09T23:58:42.559Z,2.17
